Adamsville, Utah
Current Conditions -  °F | °C
As of 12:52 PM on Thursday 20 Nov 2014 (Local Time) from KMLF Reporting Station
Clear Clear  
Wind Chill: 54°   Ceiling: Unl
Heat Index: 54°   Visibility: 10mi
Dew Point: 13°   Wind: 10mph
Humidity: 20%   Direction: 210°SSW
Pressure: 30.03"   Gusts: NA
Location:  38.2672°N, 112.728°W
Report Text: KMLF 201952Z AUTO 21009KT 10SM CLR 12/M11 A3003 RMK AO2 SLP151 T01221106 TSNO
Loading
Personal Weather Stations






























Interactive Weather Map New forecast layout! Learn more

10-Day Weather Forecast

Advertisements
Track Severe Weather on mobile